Port Lions, AK (99550)

10:27 PM AKDT on July 10, 2014 (GMT -0800)
Kodiak (PADQ) Elev 112 ft | 57.75 °N, 152.49 °W | Change Station

Current weather conditions updated 34 minutes ago

Overcast
Overcast
53 °F
Feels Like 53 °F
N
0
Wind Variable Wind from North

Tomorrow is forecast to be Warmer than today. Afternoon rain developing.

Today
High -- | Low -- °F
--% Chance of Precip.
Yesterday
High -- | Low -- °F
Precip. -- in
5:26 AM 11:07 PM
Waxing Gibbous, 98% visible
Pressure 29.48 in
Visibility 5.0 miles
Clouds Scattered Clouds 300 ft
Overcast 700 ft
Dew Point 53 °F
Humidity 100%
Rainfall 0.23 in
Snow Depth Not available.
UV 0 out of 12
Pollen Not available.
Air Quality Not available.
Flu Activity Sporadic
METAR PADQ 110553Z 00000KT 5SM BR SCT003 OVC007 12/12 A2948 RMK AO2 RAE07 SLP982 P0000 60005 T01170117 10128 20117 57005

More Conditions Fewer Conditions

Pressure 29.48 in
Visibility 5.0 miles
Clouds Scattered Clouds 300 ft
Overcast 700 ft
Dew Point 53 °F
Humidity 100%
Rainfall 0.23 in
Snow Depth Not available.
UV 0 out of 12
Pollen Not available.
Air Quality Not available.
Flu Activity Sporadic
METAR PADQ 110553Z 00000KT 5SM BR SCT003 OVC007 12/12 A2948 RMK AO2 RAE07 SLP982 P0000 60005 T01170117 10128 20117 57005

More Conditions Fewer Conditions

10-Day Weather Forecast

Almanac

Astronomy

Jul. 10, 2014 Rise Set
Actual Time 5:26 AM AKDT 11:07 PM AKDT
Civil Twilight 4:20 AM AKDT 12:13 AM AKDT
Nautical Twilight 2:50 AM AKDT 1:45 AM AKDT
Astronomical Twilight Sun does not rise Sun does not rise
Moon 9:13 PM AKDT (7/10) 4:05 AM AKDT (7/10)
Length of Visible Light 19h 53m
Length of Day
17h 40m
Tomorrow will be 2m 43s shorter.
Waxing Gibbous, 98% of the Moon is Illuminated
Jul 11
Waxing Gibbous
Jul 12
Full
Jul 18
Last Quarter
Jul 26
New
Aug 3
First Quarter

Yesterday's Extremes

State Highs State Lows

Community

WunderPhotos

Upload Photos

1,732,407 photos uploaded!

Nearby

Snow Depth

Station Depth Elevation
Port Graham 0 in 300 ft
Nuka Glacier 0 in 1250 ft
Mcneil Canyon 1 in 1320 ft
MF Bradley River 23 in 2300 ft
Cooper Lake 17 in 1200 ft

Earthquake Activity

City Distance Mag. Time & Date
No recent earthquake activity has been reported nearby.
Minimum magnitude displayed is 2.5.

Coastal Water Temperatures

Place Temperature
No Stations Reporting

Nearby Weather Stations

Station Location Temp. Dew Point Humidity Wind Precip. Elev Updated Type
HADS TERROR R AT MOUTH NR KODIAK AK , Port Lions, AK 55 °F - - North  at  - 0.00 in / hr 215 ft 9:00 PM AKDT MADIS

Show More Stations Show Fewer Stations